Time;durP1;ratioP1;P1;durP2;ratioP2;P2;SDS_P1;SDS_P2;PMS_P1;PMS_P2;Temp;Humidity;BMP_temperature;BMP_pressure;BME280_temperature;BME280_humidity;BME280_pressure;Samples;Min_cycle;Max_cycle;Signal;HPM_P1;HPM_P2
2023/03/11 00:01:40;;;;;;;8.63;3.95;;;;;;;12.32;100.00;98011.50;5033816;28;20041;-64
2023/03/11 00:04:06;;;;;;;7.65;5.30;;;;;;;12.62;99.95;98018.84;5034042;28;20030;-64
2023/03/11 00:06:35;;;;;;;11.80;5.85;;;;;;;12.76;99.95;98025.69;5032404;28;20034;-65
2023/03/11 00:09:00;;;;;;;6.90;4.53;;;;;;;12.83;98.14;98018.47;5029108;28;20285;-64
2023/03/11 00:11:26;;;;;;;8.00;4.65;;;;;;;13.00;97.33;98003.59;5033378;28;20324;-64
2023/03/11 00:13:51;;;;;;;6.20;5.10;;;;;;;13.26;94.45;98013.16;5033251;28;20045;-64
2023/03/11 00:16:17;;;;;;;8.88;5.00;;;;;;;13.25;94.53;98014.19;5033643;28;20320;-64
2023/03/11 00:18:42;;;;;;;8.48;5.10;;;;;;;13.41;93.44;98010.13;5033766;28;20215;-64
2023/03/11 00:21:15;;;;;;;12.75;6.18;;;;;;;13.53;92.98;98011.03;5034088;28;20041;-66
2023/03/11 00:23:41;;;;;;;8.75;4.75;;;;;;;13.41;92.62;98032.19;5033435;28;20340;-65
2023/03/11 00:26:07;;;;;;;8.10;5.05;;;;;;;13.39;93.05;98033.47;5035992;28;20041;-65
2023/03/11 00:28:32;;;;;;;9.07;6.38;;;;;;;13.46;92.77;98004.94;5033150;28;20064;-65
2023/03/11 00:30:58;;;;;;;7.20;4.82;;;;;;;13.42;92.44;98004.59;5033886;28;20041;-65
2023/03/11 00:33:24;;;;;;;9.05;5.07;;;;;;;13.38;92.78;97995.44;5033720;28;20029;-65
2023/03/11 00:35:50;;;;;;;9.07;5.53;;;;;;;13.47;91.94;97976.50;5032151;28;20101;-65
2023/03/11 00:38:16;;;;;;;23.20;11.48;;;;;;;13.51;91.10;97970.53;5033141;28;20034;-65
2023/03/11 00:40:43;;;;;;;7.13;5.60;;;;;;;13.56;90.53;97962.72;5032865;28;20128;-65
2023/03/11 00:43:09;;;;;;;13.13;8.52;;;;;;;13.64;90.21;97966.91;5032563;28;20332;-66
2023/03/11 00:45:35;;;;;;;11.70;7.72;;;;;;;13.74;89.91;97954.69;5031228;28;20041;-65
2023/03/11 00:48:00;;;;;;;13.15;7.03;;;;;;;13.90;88.40;97949.78;5032669;28;20252;-65
2023/03/11 00:50:29;;;;;;;9.93;6.70;;;;;;;14.01;87.65;97947.16;5032437;28;20032;-64
2023/03/11 00:52:55;;;;;;;24.40;10.70;;;;;;;14.08;86.41;97944.38;5032255;28;20034;-64
2023/03/11 00:55:32;;;;;;;10.88;6.35;;;;;;;14.13;84.90;97939.19;5033350;28;20096;-64
2023/03/11 00:58:01;;;;;;;8.55;5.43;;;;;;;13.59;86.82;97926.88;5034235;28;20064;-65
2023/03/11 01:00:28;;;;;;;8.45;5.20;;;;;;;13.07;91.86;97927.28;5032231;28;20041;-65
2023/03/11 01:02:55;;;;;;;6.18;5.57;;;;;;;12.81;92.15;97921.44;5036172;28;20037;-66
2023/03/11 01:05:27;;;;;;;12.73;6.00;;;;;;;13.08;91.92;97949.34;5036554;28;20238;-64
2023/03/11 01:07:52;;;;;;;6.50;5.63;;;;;;;13.21;91.69;97948.41;5034513;28;20072;-64
2023/03/11 01:10:18;;;;;;;6.18;4.70;;;;;;;13.31;90.39;97940.72;5036522;28;20042;-64
2023/03/11 01:12:43;;;;;;;9.30;5.00;;;;;;;13.33;89.54;97928.81;5036122;28;20290;-65
2023/03/11 01:15:19;;;;;;;7.20;4.80;;;;;;;13.47;88.09;97915.38;5036366;28;20025;-65
2023/03/11 01:17:45;;;;;;;7.70;4.53;;;;;;;13.24;88.26;97919.53;5036525;28;20517;-66
2023/03/11 01:20:11;;;;;;;6.55;5.20;;;;;;;13.09;89.19;97917.22;5036507;28;20617;-65
2023/03/11 01:22:36;;;;;;;24.15;10.85;;;;;;;13.16;89.27;97906.53;5037023;28;20041;-65
2023/03/11 01:25:02;;;;;;;12.13;6.55;;;;;;;13.32;89.28;97892.66;5034863;28;20389;-65
2023/03/11 01:27:28;;;;;;;14.02;7.32;;;;;;;13.30;88.72;97896.56;5036092;28;20045;-65
2023/03/11 01:29:53;;;;;;;7.57;4.95;;;;;;;13.16;90.32;97901.22;5035746;28;20327;-64
2023/03/11 01:32:19;;;;;;;8.60;5.85;;;;;;;13.25;89.23;97883.13;5034982;28;20083;-64
2023/03/11 01:34:44;;;;;;;7.15;5.10;;;;;;;13.08;89.63;97889.03;5035030;28;20033;-64
2023/03/11 01:37:10;;;;;;;18.20;8.57;;;;;;;12.41;95.56;97901.38;5035394;28;20041;-64
2023/03/11 01:39:35;;;;;;;12.25;7.35;;;;;;;12.54;96.37;97902.31;5036292;28;20041;-64
2023/03/11 01:42:01;;;;;;;9.68;6.00;;;;;;;12.62;96.59;97889.56;5035006;28;20078;-65
2023/03/11 01:44:26;;;;;;;13.13;8.20;;;;;;;12.55;98.33;97875.53;5036321;28;20116;-65
2023/03/11 01:46:52;;;;;;;8.90;5.70;;;;;;;12.61;98.38;97885.28;5035557;28;20195;-64
2023/03/11 01:49:19;;;;;;;9.90;5.97;;;;;;;12.70;98.66;97888.47;5035311;28;20324;-65
2023/03/11 01:51:48;;;;;;;17.48;9.48;;;;;;;12.73;99.13;97890.66;5033223;28;20098;-64
2023/03/11 01:54:19;;;;;;;13.95;5.53;;;;;;;12.74;100.00;97893.09;5035931;28;20160;-64
2023/03/11 01:56:45;;;;;;;12.55;5.28;;;;;;;12.88;100.00;97879.69;5036309;28;20343;-65
2023/03/11 01:59:15;;;;;;;9.23;5.32;;;;;;;12.79;100.00;97861.38;5034605;28;20037;-64
2023/03/11 02:01:57;;;;;;;6.53;4.88;;;;;;;12.81;100.00;97866.47;5034523;28;20259;-64
2023/03/11 02:04:23;;;;;;;10.43;5.63;;;;;;;12.72;100.00;97871.28;5034917;28;20033;-66
2023/03/11 02:06:48;;;;;;;7.28;5.00;;;;;;;12.90;100.00;97856.34;5035338;28;20231;-65
2023/03/11 02:09:14;;;;;;;15.07;7.85;;;;;;;13.01;100.00;97847.63;5034669;28;20322;-64
2023/03/11 02:11:39;;;;;;;10.10;6.82;;;;;;;13.17;98.72;97835.63;5035837;28;20244;-65
2023/03/11 02:14:07;;;;;;;11.07;6.07;;;;;;;13.13;98.82;97834.41;5035860;28;20037;-64
2023/03/11 02:16:33;;;;;;;7.85;5.53;;;;;;;12.95;99.58;97837.91;5036265;28;20049;-64
2023/03/11 02:19:08;;;;;;;8.80;5.40;;;;;;;13.05;99.54;97841.66;5035953;28;20096;-64
2023/03/11 02:21:34;;;;;;;7.18;5.70;;;;;;;12.96;98.43;97829.72;5035114;28;20052;-65
2023/03/11 02:24:34;;;;;;;9.48;5.07;;;;;;;13.07;98.23;97852.06;5035589;28;20232;-64
2023/03/11 02:27:04;;;;;;;9.32;5.70;;;;;;;12.97;99.63;97860.56;5034529;28;20095;-64
2023/03/11 02:29:32;;;;;;;8.40;5.13;;;;;;;13.13;99.79;97864.44;5030936;28;20040;-65
2023/03/11 02:32:00;;;;;;;16.67;7.78;;;;;;;13.24;98.74;97866.38;5034639;28;20328;-65
2023/03/11 02:34:29;;;;;;;11.02;5.63;;;;;;;13.31;96.98;97884.91;5034280;28;20320;-64
2023/03/11 02:36:54;;;;;;;12.40;5.50;;;;;;;13.28;96.45;97883.50;5035088;28;20258;-65
2023/03/11 02:39:33;;;;;;;13.10;5.57;;;;;;;13.22;96.77;97910.16;5034836;28;20033;-65
2023/03/11 02:42:01;;;;;;;17.90;10.73;;;;;;;12.85;96.61;97906.69;5035190;28;20049;-64
2023/03/11 02:44:27;;;;;;;9.27;6.90;;;;;;;12.62;100.00;97918.75;5034662;28;20037;-64
2023/03/11 02:46:52;;;;;;;11.68;6.95;;;;;;;12.53;100.00;97924.56;5034302;28;20061;-65
2023/03/11 02:49:21;;;;;;;9.50;6.78;;;;;;;12.51;100.00;97922.13;5034919;28;20339;-65
2023/03/11 02:51:46;;;;;;;11.07;7.55;;;;;;;12.46;100.00;97949.31;5034088;28;20071;-64
2023/03/11 02:54:11;;;;;;;13.95;8.25;;;;;;;12.49;100.00;97942.78;5035470;28;20037;-64
2023/03/11 02:56:37;;;;;;;14.93;7.70;;;;;;;12.59;100.00;97929.00;5034978;28;20141;-65
2023/03/11 02:59:03;;;;;;;13.00;8.10;;;;;;;12.65;100.00;97925.47;5035578;28;20025;-64
2023/03/11 03:01:28;;;;;;;12.45;6.82;;;;;;;12.69;99.63;97924.81;5034369;28;20041;-65
2023/03/11 03:03:54;;;;;;;9.05;6.03;;;;;;;12.68;99.04;97917.88;5034866;28;20030;-66
2023/03/11 03:06:19;;;;;;;9.05;6.30;;;;;;;12.77;98.68;97894.50;5032743;28;20033;-65
2023/03/11 03:08:44;;;;;;;9.43;5.78;;;;;;;12.86;97.71;97877.25;5034079;28;20045;-65
2023/03/11 03:11:10;;;;;;;6.97;5.38;;;;;;;12.79;97.02;97863.22;5035587;28;20076;-65
2023/03/11 03:13:35;;;;;;;11.18;6.50;;;;;;;12.83;97.71;97845.81;5034303;28;20034;-65
2023/03/11 03:16:01;;;;;;;11.57;6.57;;;;;;;12.85;96.88;97837.63;5034397;28;20053;-65
2023/03/11 03:18:27;;;;;;;10.45;7.18;;;;;;;12.79;96.48;97818.88;5033859;28;20037;-64
2023/03/11 03:20:52;;;;;;;14.82;8.77;;;;;;;12.74;96.90;97834.69;5035352;28;20033;-64
2023/03/11 03:23:19;;;;;;;23.85;11.27;;;;;;;12.56;98.13;97826.72;5034227;28;20670;-64
2023/03/11 03:25:44;;;;;;;26.92;12.95;;;;;;;12.58;98.31;97823.84;5034422;28;20029;-66
2023/03/11 03:28:13;;;;;;;25.65;11.13;;;;;;;12.51;98.84;97834.53;5032029;28;20377;-65
2023/03/11 03:30:40;;;;;;;16.55;8.45;;;;;;;12.41;99.17;97834.19;5030423;28;20040;-64
2023/03/11 03:33:06;;;;;;;18.50;8.35;;;;;;;12.47;98.85;97833.31;5035871;28;20063;-64
2023/03/11 03:35:32;;;;;;;27.85;11.82;;;;;;;12.34;99.29;97828.16;5033702;28;20093;-64
2023/03/11 03:37:58;;;;;;;9.23;5.93;;;;;;;12.35;99.55;97830.59;5033929;28;20278;-64
2023/03/11 03:40:24;;;;;;;17.35;8.57;;;;;;;12.37;99.13;97830.38;5033720;28;20079;-65
2023/03/11 03:42:49;;;;;;;14.05;7.97;;;;;;;12.48;98.57;97834.94;5032775;28;20073;-64
2023/03/11 03:45:15;;;;;;;7.20;5.63;;;;;;;12.74;96.79;97836.53;5033052;28;20049;-64
2023/03/11 03:47:40;;;;;;;7.03;5.45;;;;;;;12.67;97.35;97831.28;5033585;28;20557;-64
2023/03/11 03:50:08;;;;;;;6.22;5.00;;;;;;;12.44;98.13;97834.56;5032684;28;20049;-65
2023/03/11 03:52:34;;;;;;;9.13;4.80;;;;;;;12.43;98.54;97848.88;5033323;28;20041;-65
2023/03/11 03:55:00;;;;;;;7.53;4.88;;;;;;;12.52;97.65;97846.78;5032471;28;20049;-65
2023/03/11 03:57:28;;;;;;;9.57;5.20;;;;;;;12.65;97.59;97843.16;5033271;28;20213;-64
2023/03/11 03:59:53;;;;;;;8.98;5.47;;;;;;;12.87;95.97;97847.00;5029889;28;20041;-64
2023/03/11 04:02:19;;;;;;;6.95;5.20;;;;;;;13.01;95.11;97842.31;5033478;28;20059;-65
2023/03/11 04:04:44;;;;;;;6.82;5.22;;;;;;;13.19;93.70;97849.47;5033796;28;20370;-65
2023/03/11 04:07:10;;;;;;;5.93;5.03;;;;;;;13.31;92.44;97856.47;5033243;28;20068;-65
2023/03/11 04:09:38;;;;;;;10.82;6.68;;;;;;;13.41;91.05;97878.00;5032597;28;20037;-64
2023/03/11 04:12:04;;;;;;;10.55;7.40;;;;;;;13.30;90.25;97907.19;5033049;28;20358;-66
2023/03/11 04:14:30;;;;;;;15.65;6.65;;;;;;;13.21;91.19;97922.63;5032548;28;20294;-66
2023/03/11 04:16:56;;;;;;;9.63;6.05;;;;;;;13.16;91.45;97924.31;5033841;28;20064;-65
2023/03/11 04:19:22;;;;;;;8.40;5.43;;;;;;;13.16;91.87;97932.28;5033968;28;20034;-64
2023/03/11 04:21:49;;;;;;;8.88;6.00;;;;;;;13.13;91.67;97925.56;5033544;28;20059;-64
2023/03/11 04:24:15;;;;;;;7.18;5.97;;;;;;;13.05;92.18;97929.34;5032427;28;20038;-64
2023/03/11 04:26:40;;;;;;;8.60;5.72;;;;;;;13.03;91.88;97927.94;5034504;28;20363;-64
2023/03/11 04:29:05;;;;;;;7.53;5.35;;;;;;;13.02;91.72;97928.97;5033820;28;20268;-66
2023/03/11 04:31:31;;;;;;;14.25;5.82;;;;;;;12.96;92.06;97928.00;5033012;28;20029;-65
2023/03/11 04:33:56;;;;;;;6.93;5.28;;;;;;;12.89;92.43;97942.41;5032848;28;20037;-65
2023/03/11 04:36:22;;;;;;;7.03;5.15;;;;;;;12.86;92.85;97945.50;5032711;28;20029;-64
2023/03/11 04:38:47;;;;;;;8.23;5.10;;;;;;;12.88;92.21;97940.78;5033153;28;20034;-65
2023/03/11 04:41:13;;;;;;;7.57;5.30;;;;;;;12.75;92.63;97953.16;5032572;28;20107;-64
2023/03/11 04:43:38;;;;;;;9.43;5.90;;;;;;;12.75;93.22;97955.00;5033400;28;20030;-65
2023/03/11 04:46:04;;;;;;;24.30;13.35;;;;;;;12.77;93.14;97960.91;5032740;28;20029;-65
2023/03/11 04:48:29;;;;;;;12.93;9.10;;;;;;;12.73;93.01;97960.53;5032340;28;20128;-66
2023/03/11 05:16:07;;;;;;;12.20;7.05;;;;;;;13.54;93.15;97972.78;5114438;27;21107;-69
2023/03/11 05:18:33;;;;;;;12.68;8.82;;;;;;;13.54;92.24;97975.44;5114615;28;20043;-64
2023/03/11 05:20:58;;;;;;;15.48;11.90;;;;;;;13.52;92.16;97976.66;5114097;28;20024;-65
2023/03/11 05:23:24;;;;;;;28.70;19.50;;;;;;;13.41;93.04;97978.22;5114679;28;20023;-65
2023/03/11 05:25:49;;;;;;;31.67;18.35;;;;;;;13.28;94.02;97971.22;5114267;28;20036;-70
2023/03/11 05:28:15;;;;;;;18.05;10.63;;;;;;;13.33;94.36;97970.53;5114267;28;20028;-70
2023/03/11 05:30:40;;;;;;;13.10;8.77;;;;;;;13.38;93.55;97968.84;5114269;28;20065;-69
2023/03/11 05:33:06;;;;;;;17.25;13.00;;;;;;;13.42;94.13;97967.38;5109542;28;20032;-69
2023/03/11 05:35:31;;;;;;;18.10;13.55;;;;;;;13.41;93.65;97964.94;5097093;28;20055;-70
2023/03/11 05:37:57;;;;;;;18.50;13.48;;;;;;;13.39;94.05;97967.00;5109297;28;20083;-64
2023/03/11 05:40:22;;;;;;;23.08;17.58;;;;;;;13.38;94.29;97965.38;5111742;28;20044;-69
2023/03/11 05:42:48;;;;;;;20.42;15.40;;;;;;;13.36;94.15;97978.88;5107271;28;20044;-70
2023/03/11 05:45:14;;;;;;;16.98;14.18;;;;;;;13.27;95.58;97977.56;5111526;28;20249;-69
2023/03/11 05:47:41;;;;;;;17.23;12.65;;;;;;;13.43;95.22;97970.84;5113972;28;20024;-70
2023/03/11 05:50:07;;;;;;;19.77;11.82;;;;;;;13.53;94.30;97955.19;5114246;28;20024;-70
2023/03/11 05:52:33;;;;;;;16.85;11.82;;;;;;;13.65;93.28;97960.56;5105462;28;20047;-69
2023/03/11 05:54:58;;;;;;;15.15;10.45;;;;;;;13.70;92.13;97966.81;5111597;28;20124;-69
2023/03/11 05:57:24;;;;;;;16.15;10.57;;;;;;;13.68;92.71;97957.44;5115053;28;20117;-70
2023/03/11 05:59:49;;;;;;;14.55;10.88;;;;;;;13.75;92.69;97960.84;5105187;28;20106;-69
2023/03/11 06:02:15;;;;;;;18.25;10.80;;;;;;;13.79;92.55;97955.88;5091187;28;20021;-70
2023/03/11 06:04:41;;;;;;;19.02;12.20;;;;;;;13.85;92.43;97944.31;5091638;28;20063;-69
2023/03/11 06:07:06;;;;;;;18.45;11.05;;;;;;;13.95;91.75;97947.25;5091647;28;20036;-70
2023/03/11 06:09:35;;;;;;;15.55;11.50;;;;;;;14.02;91.50;97946.13;5090548;28;20436;-70
2023/03/11 06:12:01;;;;;;;16.65;10.73;;;;;;;14.07;91.80;97946.25;5093717;28;20043;-70
2023/03/11 06:14:30;;;;;;;15.40;9.00;;;;;;;13.78;93.25;97941.75;5092716;28;20059;-66
2023/03/11 06:16:56;;;;;;;10.73;7.75;;;;;;;13.81;93.38;97945.81;5080286;28;20230;-65
2023/03/11 06:19:22;;;;;;;8.25;5.93;;;;;;;13.95;94.06;97942.75;5079142;28;20082;-65
2023/03/11 06:21:47;;;;;;;9.75;6.88;;;;;;;14.01;94.03;97938.34;5078871;28;20060;-70
2023/03/11 06:24:13;;;;;;;8.85;6.22;;;;;;;14.02;94.20;97927.47;5079468;28;20045;-65
2023/03/11 06:26:38;;;;;;;6.57;5.10;;;;;;;14.16;93.01;97916.63;5078747;28;20098;-70
2023/03/11 06:29:04;;;;;;;7.45;4.72;;;;;;;14.27;93.04;97915.84;5078838;28;20067;-69
2023/03/11 06:31:29;;;;;;;6.53;4.93;;;;;;;14.42;91.59;97910.91;5077823;28;20032;-65
2023/03/11 06:33:55;;;;;;;6.38;4.95;;;;;;;14.47;90.50;97918.19;5077780;28;20053;-70
2023/03/11 06:36:21;;;;;;;5.45;4.15;;;;;;;14.51;89.36;97920.16;5081398;28;20028;-70
2023/03/11 06:38:48;;;;;;;8.07;5.03;;;;;;;14.60;89.47;97912.66;5078092;28;20215;-65
2023/03/11 06:41:15;;;;;;;8.65;4.65;;;;;;;14.71;89.06;97913.69;5079759;28;20039;-65
2023/03/11 06:43:41;;;;;;;7.53;4.97;;;;;;;14.77;89.10;97913.59;5077709;28;20238;-65
2023/03/11 06:46:12;;;;;;;6.13;4.93;;;;;;;14.74;88.89;97924.69;5078641;28;20032;-65
2023/03/11 06:48:38;;;;;;;5.97;4.57;;;;;;;14.67;88.50;97927.47;5072199;28;20392;-65
2023/03/11 06:51:03;;;;;;;5.07;4.20;;;;;;;14.71;88.49;97927.03;5076552;28;20032;-70
2023/03/11 06:53:29;;;;;;;4.43;3.20;;;;;;;14.64;88.15;97917.28;5076030;28;20052;-70
2023/03/11 06:55:59;;;;;;;3.83;3.20;;;;;;;14.54;88.45;97924.22;5077799;28;20113;-70
2023/03/11 06:58:25;;;;;;;6.15;3.92;;;;;;;14.49;88.56;97916.09;5079033;28;20129;-70
2023/03/11 07:00:50;;;;;;;7.60;3.75;;;;;;;14.61;88.65;97916.94;5078509;28;20089;-65
2023/03/11 07:03:16;;;;;;;4.78;3.72;;;;;;;14.66;88.76;97912.53;5075789;28;20036;-66
2023/03/11 07:05:41;;;;;;;4.70;3.47;;;;;;;14.52;88.61;97908.47;5076031;28;20089;-66
2023/03/11 07:08:07;;;;;;;4.43;2.83;;;;;;;14.62;87.67;97913.25;5075877;28;20398;-70
2023/03/11 07:10:33;;;;;;;4.45;3.20;;;;;;;14.49;87.46;97908.94;5076385;28;20028;-65
2023/03/11 07:12:58;;;;;;;4.85;2.83;;;;;;;14.49;88.31;97911.59;5077069;28;20040;-70
2023/03/11 07:15:24;;;;;;;4.22;2.88;;;;;;;14.71;87.42;97906.53;5077058;28;20126;-65
2023/03/11 07:17:49;;;;;;;3.88;2.70;;;;;;;14.83;84.51;97904.66;5077078;28;20035;-66
2023/03/11 07:20:15;;;;;;;3.40;2.15;;;;;;;14.86;83.06;97909.50;5078073;28;20048;-70
2023/03/11 07:22:40;;;;;;;2.55;2.10;;;;;;;14.95;82.34;97912.63;5078247;28;20056;-65
2023/03/11 07:25:06;;;;;;;3.13;2.30;;;;;;;15.01;82.83;97911.69;5077456;28;20036;-69
2023/03/11 07:27:32;;;;;;;2.33;2.13;;;;;;;15.08;82.38;97911.56;5072649;28;20028;-70
2023/03/11 07:29:57;;;;;;;4.38;2.20;;;;;;;15.21;82.10;97904.09;5078952;28;20343;-70
2023/03/11 07:32:22;;;;;;;3.90;2.15;;;;;;;15.33;80.38;97912.88;5070027;28;20040;-66
2023/03/11 07:34:48;;;;;;;2.33;1.90;;;;;;;15.50;79.32;97904.94;5078041;28;20040;-70
2023/03/11 07:37:13;;;;;;;2.67;1.88;;;;;;;15.65;77.66;97904.47;5079139;28;20039;-69
2023/03/11 07:39:39;;;;;;;2.40;1.80;;;;;;;15.83;76.00;97898.09;5079124;28;20100;-69
2023/03/11 07:42:04;;;;;;;2.65;2.10;;;;;;;16.03;75.87;97900.31;5079523;28;20032;-70
2023/03/11 07:44:30;;;;;;;2.10;1.90;;;;;;;16.18;73.47;97893.38;5078349;28;20070;-66
2023/03/11 07:46:55;;;;;;;2.85;1.55;;;;;;;16.22;70.27;97891.00;5077626;28;20033;-65
2023/03/11 07:49:21;;;;;;;1.27;1.17;;;;;;;16.19;70.08;97881.63;5078407;28;20044;-65
2023/03/11 07:51:46;;;;;;;2.28;1.85;;;;;;;16.15;69.41;97885.03;5078082;28;20032;-70
2023/03/11 07:54:12;;;;;;;1.20;1.10;;;;;;;16.11;70.02;97889.22;5077585;28;20043;-64
2023/03/11 07:56:38;;;;;;;4.07;2.03;;;;;;;16.23;69.29;97897.97;5078025;28;20028;-70
2023/03/11 07:59:04;;;;;;;1.95;1.75;;;;;;;16.31;68.79;97894.09;5078502;28;20032;-67
2023/03/11 08:01:39;;;;;;;3.85;2.05;;;;;;;16.40;68.39;97888.09;5078246;28;20234;-70
2023/03/11 08:04:08;;;;;;;2.05;1.20;;;;;;;16.48;65.67;97894.88;5078022;28;20090;-65
2023/03/11 08:06:35;;;;;;;2.65;1.33;;;;;;;16.53;65.14;97892.28;5079162;28;20032;-69
2023/03/11 08:09:03;;;;;;;1.52;0.95;;;;;;;16.57;64.44;97896.09;5078663;28;20037;-65
2023/03/11 08:11:29;;;;;;;1.02;0.82;;;;;;;16.67;63.41;97890.94;5078734;28;20043;-70
2023/03/11 08:13:56;;;;;;;1.08;0.80;;;;;;;16.69;61.62;97891.50;5078558;28;20262;-66
2023/03/11 08:16:22;;;;;;;1.42;1.08;;;;;;;17.00;62.65;97889.22;5078059;28;20024;-67
2023/03/11 08:18:49;;;;;;;2.67;1.23;;;;;;;17.10;61.77;97906.22;5078302;28;20090;-65
2023/03/11 08:21:21;;;;;;;1.90;0.93;;;;;;;17.09;59.18;97896.56;5078705;28;20025;-65
2023/03/11 08:23:47;;;;;;;1.92;0.80;;;;;;;17.20;59.47;97890.28;5078033;28;20062;-64
2023/03/11 08:26:16;;;;;;;2.15;0.90;;;;;;;17.20;58.71;97882.25;5078812;28;20032;-69
2023/03/11 08:28:42;;;;;;;2.08;0.95;;;;;;;17.25;58.40;97878.84;5077691;28;20059;-65
2023/03/11 08:31:19;;;;;;;2.53;1.15;;;;;;;17.18;59.23;97880.91;5077543;28;20309;-65
2023/03/11 08:33:48;;;;;;;1.67;1.10;;;;;;;17.31;59.36;97880.53;5077396;28;20111;-70
2023/03/11 08:36:14;;;;;;;1.58;0.90;;;;;;;17.30;59.28;97881.56;5078690;28;20274;-66
2023/03/11 08:38:40;;;;;;;3.65;1.00;;;;;;;17.26;59.21;97879.66;5077978;28;20051;-65
2023/03/11 08:41:05;;;;;;;1.25;1.05;;;;;;;17.24;59.72;97886.06;5077975;28;20044;-71
2023/03/11 08:43:31;;;;;;;2.83;1.27;;;;;;;17.26;59.90;97885.00;5078360;28;20051;-69
2023/03/11 08:45:59;;;;;;;2.45;1.05;;;;;;;17.14;59.39;97882.47;5078418;28;20036;-65
2023/03/11 08:48:24;;;;;;;1.60;0.90;;;;;;;17.17;58.75;97880.09;5079090;28;20032;-66
2023/03/11 08:50:50;;;;;;;1.88;0.80;;;;;;;17.28;57.83;97869.50;5078461;28;20324;-70
2023/03/11 08:53:15;;;;;;;1.35;0.90;;;;;;;17.16;57.91;97872.31;5078076;28;20040;-67
2023/03/11 08:55:41;;;;;;;2.97;0.93;;;;;;;17.00;56.91;97881.22;5077791;28;20043;-70
2023/03/11 08:58:06;;;;;;;2.70;0.90;;;;;;;17.07;54.45;97882.66;5078238;28;20031;-70
2023/03/11 09:00:32;;;;;;;3.80;0.88;;;;;;;17.08;54.38;97876.25;5078164;28;20033;-70
2023/03/11 09:02:58;;;;;;;7.10;1.75;;;;;;;17.08;54.94;97868.22;5078002;28;20049;-70
2023/03/11 09:05:23;;;;;;;4.65;2.40;;;;;;;17.13;54.51;97864.78;5077878;28;20210;-70
2023/03/11 09:07:49;;;;;;;6.72;2.10;;;;;;;17.22;54.81;97865.97;5077926;28;20502;-65
2023/03/11 09:10:15;;;;;;;4.50;2.20;;;;;;;17.15;55.56;97855.47;5078204;28;20240;-70
2023/03/11 09:12:41;;;;;;;4.05;1.27;;;;;;;17.24;53.68;97856.63;5078174;28;20048;-65
2023/03/11 09:15:07;;;;;;;1.25;0.70;;;;;;;17.28;54.57;97843.56;5077582;28;20055;-69
2023/03/11 09:17:33;;;;;;;0.70;0.70;;;;;;;17.32;54.04;97842.00;5077231;28;20334;-69
2023/03/11 09:19:58;;;;;;;0.80;0.77;;;;;;;17.50;53.82;97838.97;5078251;28;20044;-65
2023/03/11 09:22:24;;;;;;;1.85;0.50;;;;;;;17.71;54.02;97834.69;5077242;28;20395;-66
2023/03/11 09:24:49;;;;;;;1.00;0.70;;;;;;;17.61;53.91;97818.47;5077098;28;20040;-66
2023/03/11 09:27:15;;;;;;;3.13;0.70;;;;;;;17.76;54.35;97829.38;5076941;28;20028;-70
2023/03/11 09:29:41;;;;;;;1.10;0.80;;;;;;;17.78;54.02;97826.44;5076940;28;20441;-66
2023/03/11 09:32:06;;;;;;;1.30;1.13;;;;;;;17.89;54.19;97824.66;5077269;28;20029;-70
2023/03/11 09:34:32;;;;;;;1.65;1.10;;;;;;;17.78;54.05;97810.38;5077272;28;20055;-65
2023/03/11 09:36:57;;;;;;;1.40;1.00;;;;;;;17.50;54.62;97814.91;5077225;28;20032;-66
2023/03/11 09:39:23;;;;;;;1.88;1.33;;;;;;;17.68;54.99;97820.97;5077554;28;20062;-70
2023/03/11 09:41:54;;;;;;;1.65;1.08;;;;;;;17.48;55.04;97805.50;5077157;28;20047;-70
2023/03/11 09:44:40;;;;;;;1.00;0.90;;;;;;;17.49;54.22;97809.81;5076205;28;20040;-65
2023/03/11 09:47:17;;;;;;;1.95;1.38;;;;;;;17.39;54.52;97812.38;5076589;28;20032;-71
2023/03/11 09:50:03;;;;;;;1.83;1.15;;;;;;;17.44;54.25;97826.63;5064046;28;20045;-65
2023/03/11 09:52:57;;;;;;;2.30;0.93;;;;;;;17.25;54.80;97820.00;5061727;28;20045;-65
2023/03/11 09:55:49;;;;;;;1.02;1.02;;;;;;;17.19;54.92;97819.13;5060914;28;20580;-65
2023/03/11 09:58:33;;;;;;;1.13;1.02;;;;;;;17.24;55.24;97815.72;5062849;28;20364;-65
2023/03/11 10:00:58;;;;;;;;;;;;;;;17.24;54.91;97805.00;5061739;28;20334;-70
2023/03/11 10:03:33;;;;;;;1.50;1.08;;;;;;;17.30;55.12;97806.69;5061495;28;19951;-70
2023/03/11 10:06:20;;;;;;;2.72;1.35;;;;;;;17.51;54.58;97807.69;5061125;28;20237;-70
2023/03/11 10:09:07;;;;;;;0.90;0.90;;;;;;;17.75;53.39;97800.19;5061963;28;20364;-65
2023/03/11 10:11:51;;;;;;;3.42;1.50;;;;;;;18.10;54.36;97797.78;5060626;28;20036;-70
2023/03/11 10:14:36;;;;;;;2.08;1.00;;;;;;;18.45;53.99;97801.72;5060988;28;20056;-70
2023/03/11 10:17:13;;;;;;;1.08;0.95;;;;;;;18.63;50.20;97812.03;5059498;28;20033;-65
2023/03/11 10:20:12;;;;;;;1.20;0.93;;;;;;;18.74;48.94;97807.56;5058647;28;20060;-65
2023/03/11 10:23:02;;;;;;;2.58;1.55;;;;;;;18.83;47.95;97806.00;5059249;28;20049;-65
2023/03/11 10:25:40;;;;;;;0.98;0.88;;;;;;;18.90;46.03;97801.19;5059003;28;20132;-65
2023/03/11 10:28:13;;;;;;;5.40;1.20;;;;;;;18.85;44.47;97805.72;5062625;28;20037;-70
2023/03/11 10:30:45;;;;;;;3.00;0.88;;;;;;;18.86;44.13;97812.72;5060384;28;20314;-70
2023/03/11 10:33:20;;;;;;;1.85;0.90;;;;;;;18.90;43.54;97798.50;5061943;28;20032;-70
2023/03/11 10:35:52;;;;;;;0.98;0.77;;;;;;;18.69;44.97;97810.19;5062749;28;20051;-70
2023/03/11 10:38:24;;;;;;;3.17;0.90;;;;;;;18.68;45.63;97806.72;5058464;28;20041;-66
2023/03/11 10:40:53;;;;;;;2.92;1.20;;;;;;;18.69;44.84;97800.28;5059164;28;20029;-65
2023/03/11 10:43:27;;;;;;;0.70;0.70;;;;;;;18.41;44.70;97803.31;5058523;28;20041;-65
2023/03/11 10:45:53;;;;;;;;;;;;;;;18.30;46.44;97794.41;5059355;28;20029;-70
2023/03/11 10:48:20;;;;;;;1.10;0.73;;;;;;;18.54;46.15;97796.69;5061239;28;19920;-66
2023/03/11 10:51:01;;;;;;;1.45;0.85;;;;;;;18.71;45.12;97794.66;5060253;28;20048;-66
2023/03/11 10:53:26;;;;;;;1.48;0.90;;;;;;;19.02;45.70;97783.00;5060923;28;20053;-70
2023/03/11 10:55:54;;;;;;;0.65;0.65;;;;;;;19.18;42.98;97775.00;5061160;28;20339;-65
2023/03/11 10:58:30;;;;;;;2.28;0.73;;;;;;;19.29;42.11;97768.56;5060424;28;20354;-66
2023/03/11 11:01:12;;;;;;;2.25;0.60;;;;;;;19.43;41.74;97772.34;5059741;28;20348;-70
2023/03/11 11:03:41;;;;;;;0.85;0.85;;;;;;;19.54;41.64;97773.19;5057365;28;20045;-70
2023/03/11 11:06:20;;;;;;;0.70;0.50;;;;;;;19.56;41.45;97769.16;5058454;28;20040;-70
2023/03/11 11:08:46;;;;;;;1.25;0.90;;;;;;;19.48;39.64;97772.34;5060198;28;20087;-70
2023/03/11 11:11:22;;;;;;;0.70;0.70;;;;;;;19.11;40.35;97764.50;5061659;28;20727;-66
2023/03/11 11:13:56;;;;;;;3.00;0.93;;;;;;;19.09;41.10;97770.13;5060247;28;20049;-70
2023/03/11 11:16:22;;;;;;;;;;;;;;;19.12;40.23;97758.06;5061977;28;20056;-70
2023/03/11 11:18:53;;;;;;;0.85;0.82;;;;;;;19.06;41.25;97768.00;5060158;28;20087;-71
2023/03/11 11:21:33;;;;;;;0.98;0.73;;;;;;;19.05;40.92;97768.25;5060006;28;20028;-71
2023/03/11 11:24:19;;;;;;;1.85;0.57;;;;;;;19.11;41.51;97759.94;5060021;28;20040;-66
2023/03/11 11:27:03;;;;;;;1.15;0.70;;;;;;;19.04;40.55;97756.72;5057725;28;20037;-71
2023/03/11 11:29:29;;;;;;;;;;;;;;;18.98;40.16;97756.97;5059333;28;20080;-71
2023/03/11 11:32:17;;;;;;;1.15;0.70;;;;;;;18.76;40.22;97752.63;5060775;28;19920;-67
2023/03/11 11:34:55;;;;;;;2.45;0.82;;;;;;;18.70;40.64;97758.19;5058785;28;20068;-71
2023/03/11 11:37:22;;;;;;;0.88;0.70;;;;;;;18.73;39.29;97753.13;5063225;28;20332;-71
2023/03/11 11:39:55;;;;;;;1.73;0.70;;;;;;;18.81;39.68;97738.41;5059251;28;20037;-67
2023/03/11 11:42:23;;;;;;;2.10;0.70;;;;;;;18.98;39.77;97736.31;5059343;28;20037;-67
2023/03/11 11:44:59;;;;;;;1.70;0.60;;;;;;;19.04;38.86;97737.13;5060626;28;20103;-70
2023/03/11 11:47:33;;;;;;;1.45;1.02;;;;;;;19.00;37.75;97725.31;5059975;28;20076;-70
2023/03/11 11:50:03;;;;;;;1.83;0.68;;;;;;;18.90;38.95;97726.09;5059937;28;20047;-71
2023/03/11 11:52:42;;;;;;;0.93;0.60;;;;;;;19.04;39.29;97724.53;5060231;28;20047;-67
2023/03/11 11:55:29;;;;;;;1.85;1.08;;;;;;;19.13;38.01;97714.88;5059802;28;20316;-66
2023/03/11 11:57:55;;;;;;;1.80;1.10;;;;;;;19.11;38.08;97717.03;5058571;28;20214;-66
2023/03/11 12:00:28;;;;;;;0.70;0.70;;;;;;;19.10;38.01;97707.38;5058782;28;20226;-71
2023/03/11 12:02:59;;;;;;;0.80;0.80;;;;;;;19.28;38.28;97707.94;5059871;28;20255;-66